^^
Datos históricos de la estación: Murcia-Puente Tocinos
Diario Informe para Junio 2, 2019 Unidades:  Ambas    Inglés   Métrico
Diario Semanal Mensual Anual Configurable
  Máximo: Mínimo: Media:
Temperatura: 84 °F /  28.9 °C 60.6 °F /  15.9 °C 72 °F /  22.2 °C
Punto de rocio: 53.4 °F /  11.9 °C 38.7 °F /  3.7 °C 44.4 °F /  6.9 °C
Humedad: 61% 21% 40%
Velocidad viento: 9.7mph /  15.6km/h - 5mph /  8km/h
Racha viento: 18.4mph /  29.6km/h - -
Viento- - ESE
Presión: 30.1 in /  1019.7 hPa 30 in /  1015.6 hPa -
Precipitación: 0 in /  0.0 mm    
Historical Graphs
 
 
Tabla de datos para Junio 2, 2019
Hora Temperatura Punto de rocio Presión Viento Velocidad viento Racha viento Humedad Intensidad lluvia(por hora) Nubes
00:04 69.1 °F /  20.6 °C 47.5 °F /  8.6 °C 30.1in /  1019.6hPa NE 4.3mph /  6.9km/h 5.8mph /  9.3km/h 46% 0in /  0.0mm CLR
00:09 68.9 °F /  20.5 °C 47.8 °F /  8.8 °C 30.1in /  1019.6hPa NE 4mph /  6.4km/h 5.8mph /  9.3km/h 47% 0in /  0.0mm CLR
00:14 68.7 °F /  20.4 °C 47.7 °F /  8.7 °C 30.1in /  1019.6hPa NE 4mph /  6.4km/h 4.6mph /  7.4km/h 47% 0in /  0.0mm CLR
00:19 68.5 °F /  20.3 °C 47.5 °F /  8.6 °C 30.1in /  1019.6hPa NE 3.1mph /  5.0km/h 2.4mph /  3.9km/h 47% 0in /  0.0mm CLR
00:24 68.4 °F /  20.2 °C 47.8 °F /  8.8 °C 30.1in /  1019.6hPa NE 3.1mph /  5.0km/h 4.6mph /  7.4km/h 48% 0in /  0.0mm CLR
00:29 68.2 °F /  20.1 °C 47.7 °F /  8.7 °C 30.1in /  1019.6hPa NE 2mph /  3.2km/h   48% 0in /  0.0mm CLR
00:34 68 °F /  20.0 °C 47.7 °F /  8.7 °C 30.1in /  1019.7hPa NE 2mph /  3.2km/h 2.3mph /  3.7km/h 48% 0in /  0.0mm CLR
00:39 67.6 °F /  19.8 °C 47.1 °F /  8.4 °C 30.1in /  1019.7hPa NE 1.8mph /  2.9km/h 2.3mph /  3.7km/h 48% 0in /  0.0mm CLR
00:44 67.3 °F /  19.6 °C 47.5 °F /  8.6 °C 30.1in /  1019.7hPa NE 1.8mph /  2.9km/h 3.1mph /  5.0km/h 49% 0in /  0.0mm CLR
00:49 66.9 °F /  19.4 °C 47.1 °F /  8.4 °C 30.1in /  1019.6hPa NNE 2mph /  3.2km/h 3.5mph /  5.6km/h 49% 0in /  0.0mm CLR
00:54 66.6 °F /  19.2 °C 46.8 °F /  8.2 °C 30.1in /  1019.6hPa NE 2mph /  3.2km/h 4.6mph /  7.4km/h 49% 0in /  0.0mm CLR
00:59 66.4 °F /  19.1 °C 46.6 °F /  8.1 °C 30.1in /  1019.6hPa NNE 2.4mph /  3.9km/h 4.6mph /  7.4km/h 49% 0in /  0.0mm CLR
01:04 66.2 °F /  19.0 °C 46.9 °F /  8.3 °C 30.1in /  1019.6hPa ENE 2.4mph /  3.9km/h 4.6mph /  7.4km/h 50% 0in /  0.0mm CLR
01:09 66 °F /  18.9 °C 46.8 °F /  8.2 °C 30.1in /  1019.6hPa ENE 2.9mph /  4.7km/h 4.6mph /  7.4km/h 50% 0in /  0.0mm CLR
01:14 65.8 °F /  18.8 °C 47.1 °F /  8.4 °C 30.1in /  1019.6hPa ENE 2.9mph /  4.7km/h 2.3mph /  3.7km/h 51% 0in /  0.0mm CLR
01:19 65.8 °F /  18.8 °C 47.1 °F /  8.4 °C 30.1in /  1019.6hPa ENE 2.4mph /  3.9km/h 2.3mph /  3.7km/h 51% 0in /  0.0mm CLR
01:24 65.8 °F /  18.8 °C 47.1 °F /  8.4 °C 30.1in /  1019.6hPa ENE 2.4mph /  3.9km/h 2.3mph /  3.7km/h 51% 0in /  0.0mm CLR
01:29 65.8 °F /  18.8 °C 47.1 °F /  8.4 °C 30.1in /  1019.6hPa Calm     51% 0in /  0.0mm CLR
01:34 65.7 °F /  18.7 °C 47.5 °F /  8.6 °C 30.1in /  1019.6hPa Calm   2.4mph /  3.9km/h 52% 0in /  0.0mm CLR
01:39 65.5 °F /  18.6 °C 47.5 °F /  8.6 °C 30.1in /  1019.6hPa North 1.4mph /  2.3km/h   52% 0in /  0.0mm CLR
01:44 65.5 °F /  18.6 °C 47.8 °F /  8.8 °C 30.1in /  1019.6hPa North 1.4mph /  2.3km/h   53% 0in /  0.0mm CLR
01:49 65.1 °F /  18.4 °C 47.7 °F /  8.7 °C 30.1in /  1019.6hPa Calm     53% 0in /  0.0mm CLR
01:54 65.1 °F /  18.4 °C 47.7 °F /  8.7 °C 30.1in /  1019.6hPa Calm     53% 0in /  0.0mm CLR
01:59 65.1 °F /  18.4 °C 47.7 °F /  8.7 °C 30.1in /  1019.6hPa Calm   2.3mph /  3.7km/h 53% 0in /  0.0mm CLR
02:04 65.1 °F /  18.4 °C 48 °F /  8.9 °C 30.1in /  1019.5hPa Calm   2.3mph /  3.7km/h 54% 0in /  0.0mm CLR
02:09 64.9 °F /  18.3 °C 47.8 °F /  8.8 °C 30.1in /  1019.5hPa North 1.4mph /  2.3km/h 2.3mph /  3.7km/h 54% 0in /  0.0mm CLR
02:14 64.9 °F /  18.3 °C 47.8 °F /  8.8 °C 30.1in /  1019.5hPa North 1.4mph /  2.3km/h 2.9mph /  4.7km/h 54% 0in /  0.0mm CLR
02:19 64.8 °F /  18.2 °C 47.7 °F /  8.7 °C 30.1in /  1019.3hPa North 1.8mph /  2.9km/h 2.3mph /  3.7km/h 54% 0in /  0.0mm CLR
02:24 64.8 °F /  18.2 °C 48.2 °F /  9.0 °C 30.1in /  1019.3hPa North 1.8mph /  2.9km/h   55% 0in /  0.0mm CLR
02:29 64.6 °F /  18.1 °C 48 °F /  8.9 °C 30.1in /  1019.3hPa Calm     55% 0in /  0.0mm CLR
02:34 64.6 °F /  18.1 °C 48 °F /  8.9 °C 30.1in /  1019.2hPa Calm     55% 0in /  0.0mm CLR
02:39 64.4 °F /  18.0 °C 47.8 °F /  8.8 °C 30.1in /  1019.2hPa Calm     55% 0in /  0.0mm CLR
02:44 64.2 °F /  17.9 °C 47.7 °F /  8.7 °C 30.1in /  1019.2hPa Calm     55% 0in /  0.0mm CLR
02:49 64.2 °F /  17.9 °C 48.2 °F /  9.0 °C 30.1in /  1019.1hPa Calm     56% 0in /  0.0mm CLR
02:54 64.2 °F /  17.9 °C 47.1 °F /  8.4 °C 30.1in /  1019.1hPa Calm     54% 0in /  0.0mm CLR
02:59 64 °F /  17.8 °C 47.1 °F /  8.4 °C 30.1in /  1019.1hPa Calm   2.3mph /  3.7km/h 54% 0in /  0.0mm CLR
03:04 64 °F /  17.8 °C 46.6 °F /  8.1 °C 30.1in /  1019.1hPa Calm   2.3mph /  3.7km/h 53% 0in /  0.0mm CLR
03:09 64 °F /  17.8 °C 46.6 °F /  8.1 °C 30.1in /  1019.1hPa North 1.4mph /  2.3km/h   53% 0in /  0.0mm CLR
03:14 63.9 °F /  17.7 °C 46.9 °F /  8.3 °C 30.1in /  1019.1hPa North 1.4mph /  2.3km/h   54% 0in /  0.0mm CLR
03:19 64 °F /  17.8 °C 47.1 °F /  8.4 °C 30.1in /  1019.1hPa Calm     54% 0in /  0.0mm CLR
03:24 64 °F /  17.8 °C 47.5 °F /  8.6 °C 30.1in /  1019.1hPa Calm     55% 0in /  0.0mm CLR
03:29 64 °F /  17.8 °C 47.5 °F /  8.6 °C 30.1in /  1019.1hPa Calm     55% 0in /  0.0mm CLR
03:34 63.9 °F /  17.7 °C 47.5 °F /  8.6 °C 30.1in /  1019.0hPa Calm     55% 0in /  0.0mm CLR
03:39 63.9 °F /  17.7 °C 47.5 °F /  8.6 °C 30.1in /  1019.0hPa Calm     55% 0in /  0.0mm CLR
03:44 63.9 °F /  17.7 °C 46.4 °F /  8.0 °C 30.1in /  1019.0hPa Calm   2.3mph /  3.7km/h 53% 0in /  0.0mm CLR
03:49 63.7 °F /  17.6 °C 45.7 °F /  7.6 °C 30.1in /  1019.0hPa Calm   2.3mph /  3.7km/h 52% 0in /  0.0mm CLR
03:54 63.7 °F /  17.6 °C 45.1 °F /  7.3 °C 30.1in /  1019.0hPa Calm   3.5mph /  5.6km/h 51% 0in /  0.0mm CLR
03:59 63.7 °F /  17.6 °C 45.7 °F /  7.6 °C 30.1in /  1019.0hPa ESE 2mph /  3.2km/h 3.5mph /  5.6km/h 52% 0in /  0.0mm CLR
04:04 63.5 °F /  17.5 °C 45.7 °F /  7.6 °C 30.1in /  1018.9hPa SSE 2mph /  3.2km/h 4mph /  6.4km/h 52% 0in /  0.0mm CLR
04:09 63.3 °F /  17.4 °C 45.3 °F /  7.4 °C 30.1in /  1018.9hPa SE 2.4mph /  3.9km/h 4.7mph /  7.6km/h 52% 0in /  0.0mm CLR
04:14 63.1 °F /  17.3 °C 44.8 °F /  7.1 °C 30.1in /  1018.9hPa South 2.4mph /  3.9km/h 4.6mph /  7.4km/h 51% 0in /  0.0mm CLR
04:19 63.1 °F /  17.3 °C 44.8 °F /  7.1 °C 30.1in /  1018.7hPa SSW 3.6mph /  5.8km/h 5.8mph /  9.3km/h 51% 0in /  0.0mm CLR
04:24 63.1 °F /  17.3 °C 44.8 °F /  7.1 °C 30.1in /  1018.7hPa SSW 3.6mph /  5.8km/h 4.6mph /  7.4km/h 51% 0in /  0.0mm CLR
04:29 63.1 °F /  17.3 °C 44.2 °F /  6.8 °C 30.1in /  1018.7hPa SSW 3.6mph /  5.8km/h 4.6mph /  7.4km/h 50% 0in /  0.0mm CLR
04:34 63.3 °F /  17.4 °C 44.4 °F /  6.9 °C 30.1in /  1018.7hPa SSW 3.6mph /  5.8km/h 6.2mph /  10.0km/h 50% 0in /  0.0mm CLR
04:39 63.3 °F /  17.4 °C 43.9 °F /  6.6 °C 30.1in /  1018.7hPa SW 4mph /  6.4km/h 5.8mph /  9.3km/h 49% 0in /  0.0mm CLR
04:44 63.3 °F /  17.4 °C 43.9 °F /  6.6 °C 30.1in /  1018.7hPa WSW 4mph /  6.4km/h 4.6mph /  7.4km/h 49% 0in /  0.0mm CLR
04:49 63.1 °F /  17.3 °C 43.7 °F /  6.5 °C 30.1in /  1018.5hPa WSW 3.6mph /  5.8km/h 4.6mph /  7.4km/h 49% 0in /  0.0mm CLR
04:54 63.1 °F /  17.3 °C 43.7 °F /  6.5 °C 30.1in /  1018.5hPa SW 3.6mph /  5.8km/h 6.9mph /  11.1km/h 49% 0in /  0.0mm CLR
04:59 63 °F /  17.2 °C 43.5 °F /  6.4 °C 30.1in /  1018.5hPa SSW 3.6mph /  5.8km/h 5.8mph /  9.3km/h 49% 0in /  0.0mm CLR
05:04 62.8 °F /  17.1 °C 43.9 °F /  6.6 °C 30.1in /  1018.5hPa SW 3.6mph /  5.8km/h 5.8mph /  9.3km/h 50% 0in /  0.0mm CLR
05:09 62.8 °F /  17.1 °C 43.9 °F /  6.6 °C 30.1in /  1018.5hPa SW 3.6mph /  5.8km/h 6.9mph /  11.1km/h 50% 0in /  0.0mm CLR
05:14 62.8 °F /  17.1 °C 43.9 °F /  6.6 °C 30.1in /  1018.5hPa SW 3.6mph /  5.8km/h 4.7mph /  7.6km/h 50% 0in /  0.0mm CLR
05:19 62.8 °F /  17.1 °C 43.9 °F /  6.6 °C 30.1in /  1018.5hPa SW 4.3mph /  6.9km/h 5.8mph /  9.3km/h 50% 0in /  0.0mm CLR
05:24 62.8 °F /  17.1 °C 44.4 °F /  6.9 °C 30.1in /  1018.5hPa WSW 4.3mph /  6.9km/h 3.5mph /  5.6km/h 51% 0in /  0.0mm CLR
05:29 62.8 °F /  17.1 °C 44.4 °F /  6.9 °C 30.1in /  1018.5hPa SW 3.1mph /  5.0km/h 4.6mph /  7.4km/h 51% 0in /  0.0mm CLR
05:34 62.8 °F /  17.1 °C 44.4 °F /  6.9 °C 30.1in /  1018.5hPa SW 3.1mph /  5.0km/h 4.6mph /  7.4km/h 51% 0in /  0.0mm CLR
05:39 62.6 °F /  17.0 °C 44.2 °F /  6.8 °C 30.1in /  1018.5hPa SSW 2.9mph /  4.7km/h 3.5mph /  5.6km/h 51% 0in /  0.0mm CLR
05:44 62.4 °F /  16.9 °C 44.1 °F /  6.7 °C 30.1in /  1018.5hPa SSW 2.9mph /  4.7km/h 4.6mph /  7.4km/h 51% 0in /  0.0mm CLR
05:49 62.4 °F /  16.9 °C 44.6 °F /  7.0 °C 30.1in /  1018.5hPa South 2.9mph /  4.7km/h 4.6mph /  7.4km/h 52% 0in /  0.0mm CLR
05:54 62.1 °F /  16.7 °C 44.2 °F /  6.8 °C 30.1in /  1018.5hPa South 2.9mph /  4.7km/h 4.3mph /  6.9km/h 52% 0in /  0.0mm CLR
05:59 61.9 °F /  16.6 °C 44.1 °F /  6.7 °C 30.1in /  1018.5hPa SSW 3.6mph /  5.8km/h 4.6mph /  7.4km/h 52% 0in /  0.0mm CLR
06:04 61.9 °F /  16.6 °C 44.1 °F /  6.7 °C 30.1in /  1018.5hPa SSW 3.6mph /  5.8km/h 5.8mph /  9.3km/h 52% 0in /  0.0mm CLR
06:09 61.9 °F /  16.6 °C 44.1 °F /  6.7 °C 30.1in /  1018.5hPa SSW 3.1mph /  5.0km/h 4.6mph /  7.4km/h 52% 0in /  0.0mm CLR
06:14 62.1 °F /  16.7 °C 43.7 °F /  6.5 °C 30.1in /  1018.5hPa SW 3.1mph /  5.0km/h 4.6mph /  7.4km/h 51% 0in /  0.0mm CLR
06:19 62.1 °F /  16.7 °C 43.2 °F /  6.2 °C 30.1in /  1018.4hPa SW 3.6mph /  5.8km/h 4.6mph /  7.4km/h 50% 0in /  0.0mm CLR
06:24 62.1 °F /  16.7 °C 43.2 °F /  6.2 °C 30.1in /  1018.4hPa South 3.6mph /  5.8km/h 5.2mph /  8.4km/h 50% 0in /  0.0mm CLR
06:29 62.1 °F /  16.7 °C 43.2 °F /  6.2 °C 30.1in /  1018.4hPa SSW 3.6mph /  5.8km/h 5.2mph /  8.4km/h 50% 0in /  0.0mm CLR
06:34 62.1 °F /  16.7 °C 42.6 °F /  5.9 °C 30.1in /  1018.5hPa SW 3.6mph /  5.8km/h 5.8mph /  9.3km/h 49% 0in /  0.0mm CLR
06:39 62.1 °F /  16.7 °C 42.6 °F /  5.9 °C 30.1in /  1018.5hPa SSW 3.1mph /  5.0km/h 4.6mph /  7.4km/h 49% 0in /  0.0mm CLR
06:44 62.1 °F /  16.7 °C 43.2 °F /  6.2 °C 30.1in /  1018.5hPa SSW 3.1mph /  5.0km/h 3.5mph /  5.6km/h 50% 0in /  0.0mm CLR
06:49 61.9 °F /  16.6 °C 43.5 °F /  6.4 °C 30.1in /  1018.5hPa South 2.4mph /  3.9km/h 4.6mph /  7.4km/h 51% 0in /  0.0mm CLR
06:54 61.5 °F /  16.4 °C 44.2 °F /  6.8 °C 30.1in /  1018.5hPa South 2.4mph /  3.9km/h 4.6mph /  7.4km/h 53% 0in /  0.0mm CLR
06:59 61.2 °F /  16.2 °C 44.4 °F /  6.9 °C 30.1in /  1018.5hPa South 2.9mph /  4.7km/h 4mph /  6.4km/h 54% 0in /  0.0mm CLR
07:04 60.8 °F /  16.0 °C 44.1 °F /  6.7 °C 30.1in /  1018.6hPa South 2.9mph /  4.7km/h 4.6mph /  7.4km/h 54% 0in /  0.0mm CLR
07:09 60.6 °F /  15.9 °C 44.4 °F /  6.9 °C 30.1in /  1018.6hPa South 2.9mph /  4.7km/h 3.5mph /  5.6km/h 55% 0in /  0.0mm CLR
07:14 60.6 °F /  15.9 °C 44.4 °F /  6.9 °C 30.1in /  1018.6hPa South 2.9mph /  4.7km/h 3.5mph /  5.6km/h 55% 0in /  0.0mm CLR
07:19 60.6 °F /  15.9 °C 43.3 °F /  6.3 °C 30.1in /  1018.7hPa SSW 2.4mph /  3.9km/h 4.6mph /  7.4km/h 53% 0in /  0.0mm CLR
07:24 61 °F /  16.1 °C 43.2 °F /  6.2 °C 30.1in /  1018.7hPa WSW 2.4mph /  3.9km/h 4.6mph /  7.4km/h 52% 0in /  0.0mm CLR
07:29 61.3 °F /  16.3 °C 43 °F /  6.1 °C 30.1in /  1018.7hPa SW 2.9mph /  4.7km/h 5.8mph /  9.3km/h 51% 0in /  0.0mm CLR
07:34 61.7 °F /  16.5 °C 43 °F /  6.1 °C 30.1in /  1018.8hPa SW 2.9mph /  4.7km/h 4.6mph /  7.4km/h 50% 0in /  0.0mm CLR
07:39 61.9 °F /  16.6 °C 42.4 °F /  5.8 °C 30.1in /  1018.8hPa SW 3.6mph /  5.8km/h 5.8mph /  9.3km/h 49% 0in /  0.0mm CLR
07:44 62.2 °F /  16.8 °C 42.8 °F /  6.0 °C 30.1in /  1018.8hPa SSW 3.6mph /  5.8km/h 5.8mph /  9.3km/h 49% 0in /  0.0mm CLR
07:49 62.4 °F /  16.9 °C 44.1 °F /  6.7 °C 30.1in /  1018.8hPa SSW 3.6mph /  5.8km/h 3.5mph /  5.6km/h 51% 0in /  0.0mm CLR
07:54 62.8 °F /  17.1 °C 43.9 °F /  6.6 °C 30.1in /  1018.8hPa SW 3.6mph /  5.8km/h 4.6mph /  7.4km/h 50% 0in /  0.0mm CLR
07:59 63 °F /  17.2 °C 43 °F /  6.1 °C 30.1in /  1018.8hPa West 2.9mph /  4.7km/h 6.9mph /  11.1km/h 48% 0in /  0.0mm CLR
08:04 63.1 °F /  17.3 °C 42.6 °F /  5.9 °C 30.1in /  1018.6hPa SW 2.9mph /  4.7km/h 5.8mph /  9.3km/h 47% 0in /  0.0mm CLR
08:09 63.1 °F /  17.3 °C 42.6 °F /  5.9 °C 30.1in /  1018.6hPa WSW 4.7mph /  7.6km/h 6.9mph /  11.1km/h 47% 0in /  0.0mm CLR
08:14 63.3 °F /  17.4 °C 43.9 °F /  6.6 °C 30.1in /  1018.6hPa SW 4.7mph /  7.6km/h 4.6mph /  7.4km/h 49% 0in /  0.0mm CLR
08:19 63.7 °F /  17.6 °C 45.1 °F /  7.3 °C 30.1in /  1018.7hPa SSE 3.6mph /  5.8km/h 4.6mph /  7.4km/h 51% 0in /  0.0mm CLR
08:24 63.5 °F /  17.5 °C 45 °F /  7.2 °C 30.1in /  1018.7hPa SSW 3.6mph /  5.8km/h 4.6mph /  7.4km/h 51% 0in /  0.0mm CLR
08:29 63.7 °F /  17.6 °C 43.5 °F /  6.4 °C 30.1in /  1018.7hPa SW 2.9mph /  4.7km/h 6.2mph /  10.0km/h 48% 0in /  0.0mm CLR
08:34 63.9 °F /  17.7 °C 43.2 °F /  6.2 °C 30.1in /  1018.8hPa WSW 2.9mph /  4.7km/h 5.8mph /  9.3km/h 47% 0in /  0.0mm CLR
08:39 64.2 °F /  17.9 °C 43 °F /  6.1 °C 30.1in /  1018.8hPa WSW 4.3mph /  6.9km/h 6.9mph /  11.1km/h 46% 0in /  0.0mm CLR
08:44 64.2 °F /  17.9 °C 43.5 °F /  6.4 °C 30.1in /  1018.8hPa WSW 4.3mph /  6.9km/h 5.8mph /  9.3km/h 47% 0in /  0.0mm CLR
08:49 64.4 °F /  18.0 °C 43.7 °F /  6.5 °C 30.1in /  1018.9hPa SW 4.7mph /  7.6km/h 5.8mph /  9.3km/h 47% 0in /  0.0mm CLR
08:54 64.8 °F /  18.2 °C 44.1 °F /  6.7 °C 30.1in /  1018.9hPa South 4.7mph /  7.6km/h 4.6mph /  7.4km/h 47% 0in /  0.0mm CLR
08:59 64.8 °F /  18.2 °C 43.5 °F /  6.4 °C 30.1in /  1018.9hPa SSW 4mph /  6.4km/h 7.4mph /  11.9km/h 46% 0in /  0.0mm CLR
09:04 64.9 °F /  18.3 °C 43.7 °F /  6.5 °C 30.1in /  1018.9hPa SSW 4mph /  6.4km/h 5.8mph /  9.3km/h 46% 0in /  0.0mm CLR
09:09 65.3 °F /  18.5 °C 44.1 °F /  6.7 °C 30.1in /  1018.9hPa South 4mph /  6.4km/h 4.7mph /  7.6km/h 46% 0in /  0.0mm CLR
09:14 65.7 °F /  18.7 °C 44.2 °F /  6.8 °C 30.1in /  1018.9hPa SW 4mph /  6.4km/h 6.9mph /  11.1km/h 46% 0in /  0.0mm CLR
09:19 66 °F /  18.9 °C 44.1 °F /  6.7 °C 30.1in /  1018.9hPa South 4mph /  6.4km/h 5.4mph /  8.7km/h 45% 0in /  0.0mm CLR
09:24 66.4 °F /  19.1 °C 43.9 °F /  6.6 °C 30.1in /  1018.9hPa South 4mph /  6.4km/h 6.9mph /  11.1km/h 44% 0in /  0.0mm CLR
09:29 66.6 °F /  19.2 °C 43.3 °F /  6.3 °C 30.1in /  1018.9hPa South 4.7mph /  7.6km/h 5.8mph /  9.3km/h 43% 0in /  0.0mm CLR
09:34 66.9 °F /  19.4 °C 43.2 °F /  6.2 °C 30.1in /  1019.0hPa South 4.7mph /  7.6km/h 8.1mph /  13.0km/h 42% 0in /  0.0mm CLR
09:39 66.9 °F /  19.4 °C 43.2 °F /  6.2 °C 30.1in /  1019.0hPa WSW 5.2mph /  8.4km/h 8.1mph /  13.0km/h 42% 0in /  0.0mm CLR
09:44 67.3 °F /  19.6 °C 43.3 °F /  6.3 °C 30.1in /  1019.0hPa SSW 5.2mph /  8.4km/h 5.8mph /  9.3km/h 42% 0in /  0.0mm CLR
09:49 67.5 °F /  19.7 °C 43.5 °F /  6.4 °C 30.1in /  1019.0hPa SSW 5.2mph /  8.4km/h 5.8mph /  9.3km/h 42% 0in /  0.0mm CLR
09:54 67.6 °F /  19.8 °C 43.2 °F /  6.2 °C 30.1in /  1019.0hPa SSW 5.2mph /  8.4km/h 6.9mph /  11.1km/h 41% 0in /  0.0mm CLR
09:59 68.2 °F /  20.1 °C 43 °F /  6.1 °C 30.1in /  1019.0hPa SSW 4.7mph /  7.6km/h 5.8mph /  9.3km/h 40% 0in /  0.0mm CLR
10:04 68.5 °F /  20.3 °C 43.2 °F /  6.2 °C 30.1in /  1018.9hPa South 4.7mph /  7.6km/h 5.8mph /  9.3km/h 40% 0in /  0.0mm CLR
10:09 69.1 °F /  20.6 °C 43.2 °F /  6.2 °C 30.1in /  1018.9hPa SW 4.3mph /  6.9km/h 6.9mph /  11.1km/h 39% 0in /  0.0mm CLR
10:14 69.3 °F /  20.7 °C 42.6 °F /  5.9 °C 30.1in /  1018.9hPa WSW 4.3mph /  6.9km/h 5.8mph /  9.3km/h 38% 0in /  0.0mm CLR
10:19 69.6 °F /  20.9 °C 43 °F /  6.1 °C 30.1in /  1018.8hPa SW 3.6mph /  5.8km/h 5.9mph /  9.5km/h 38% 0in /  0.0mm CLR
10:24 70.2 °F /  21.2 °C 43.3 °F /  6.3 °C 30.1in /  1018.8hPa SW 3.6mph /  5.8km/h 4.6mph /  7.4km/h 38% 0in /  0.0mm CLR
10:29 70.9 °F /  21.6 °C 43.3 °F /  6.3 °C 30.1in /  1018.8hPa WNW 3.1mph /  5.0km/h 5.2mph /  8.4km/h 37% 0in /  0.0mm CLR
10:34 71.2 °F /  21.8 °C 43.5 °F /  6.4 °C 30.1in /  1018.8hPa WSW 3.1mph /  5.0km/h 2.3mph /  3.7km/h 37% 0in /  0.0mm CLR
10:39 71.4 °F /  21.9 °C 43.2 °F /  6.2 °C 30.1in /  1018.8hPa SW 2.9mph /  4.7km/h 5.8mph /  9.3km/h 36% 0in /  0.0mm CLR
10:42 71.8 °F /  22.1 °C 43.3 °F /  6.3 °C 30.1in /  1018.8hPa SW 2.9mph /  4.7km/h 2.3mph /  3.7km/h 36% 0in /  0.0mm CLR
12:29 78.1 °F /  25.6 °C 39.4 °F /  4.1 °C 30.1in /  1018.4hPa NE 5.4mph /  8.7km/h 9.2mph /  14.8km/h 25% 0in /  0.0mm CLR
12:34 79 °F /  26.1 °C 39 °F /  3.9 °C 30.1in /  1018.3hPa NE 5.4mph /  8.7km/h 11.8mph /  19.0km/h 24% 0in /  0.0mm CLR
12:39 78.6 °F /  25.9 °C 38.8 °F /  3.8 °C 30.1in /  1018.3hPa East 6.4mph /  10.3km/h 11.5mph /  18.5km/h 24% 0in /  0.0mm CLR
12:44 78.4 °F /  25.8 °C 38.7 °F /  3.7 °C 30.1in /  1018.3hPa North 6.4mph /  10.3km/h 8.1mph /  13.0km/h 24% 0in /  0.0mm CLR
12:49 79 °F /  26.1 °C 40.1 °F /  4.5 °C 30.1in /  1018.2hPa North 5.4mph /  8.7km/h 6.2mph /  10.0km/h 25% 0in /  0.0mm CLR
12:54 79.3 °F /  26.3 °C 39.4 °F /  4.1 °C 30.1in /  1018.2hPa NNE 5.4mph /  8.7km/h 8.1mph /  13.0km/h 24% 0in /  0.0mm CLR
12:59 79.9 °F /  26.6 °C 38.8 °F /  3.8 °C 30.1in /  1018.2hPa NNE 4mph /  6.4km/h 11.4mph /  18.3km/h 23% 0in /  0.0mm CLR
13:05 79.9 °F /  26.6 °C 38.8 °F /  3.8 °C 30.1in /  1018.1hPa NE 5mph /  8.0km/h 12mph /  19.3km/h 23% 0in /  0.0mm CLR
13:09 80.1 °F /  26.7 °C 39.9 °F /  4.4 °C 30.1in /  1018.1hPa NE 5.2mph /  8.4km/h 6.9mph /  11.1km/h 24% 0in /  0.0mm CLR
13:14 80.4 °F /  26.9 °C 39.2 °F /  4.0 °C 30.1in /  1018.1hPa NE 5.2mph /  8.4km/h 9.2mph /  14.8km/h 23% 0in /  0.0mm CLR
13:19 80.2 °F /  26.8 °C 40.3 °F /  4.6 °C 30.1in /  1017.9hPa ENE 5.4mph /  8.7km/h 5.4mph /  8.7km/h 24% 0in /  0.0mm CLR
13:24 80.4 °F /  26.9 °C 40.3 °F /  4.6 °C 30.1in /  1017.9hPa ESE 5.4mph /  8.7km/h 11.5mph /  18.5km/h 24% 0in /  0.0mm CLR
13:29 80.8 °F /  27.1 °C 39.6 °F /  4.2 °C 30.1in /  1017.9hPa North 6.2mph /  10.0km/h 10.4mph /  16.7km/h 23% 0in /  0.0mm CLR
13:34 81 °F /  27.2 °C 39.7 °F /  4.3 °C 30.1in /  1017.7hPa NNW 6.2mph /  10.0km/h 10.7mph /  17.2km/h 23% 0in /  0.0mm CLR
13:39 80.8 °F /  27.1 °C 39.6 °F /  4.2 °C 30.1in /  1017.7hPa NNE 7.6mph /  12.2km/h 9.2mph /  14.8km/h 23% 0in /  0.0mm CLR
13:44 81 °F /  27.2 °C 39.7 °F /  4.3 °C 30.1in /  1017.7hPa NE 7.6mph /  12.2km/h 8.1mph /  13.0km/h 23% 0in /  0.0mm CLR
13:49 81.1 °F /  27.3 °C 39.7 °F /  4.3 °C 30.1in /  1017.5hPa North 5.4mph /  8.7km/h 9.2mph /  14.8km/h 23% 0in /  0.0mm CLR
13:54 81.3 °F /  27.4 °C 39.9 °F /  4.4 °C 30.1in /  1017.5hPa NNE 5.4mph /  8.7km/h 10.4mph /  16.7km/h 23% 0in /  0.0mm CLR
13:59 81.7 °F /  27.6 °C 40.3 °F /  4.6 °C 30.1in /  1017.5hPa WSW 5.4mph /  8.7km/h 12.7mph /  20.4km/h 23% 0in /  0.0mm CLR
14:04 81.9 °F /  27.7 °C 39.4 °F /  4.1 °C 30in /  1017.2hPa NNW 5.4mph /  8.7km/h 11.5mph /  18.5km/h 22% 0in /  0.0mm CLR
14:09 82 °F /  27.8 °C 40.6 °F /  4.8 °C 30in /  1017.2hPa NE 6.2mph /  10.0km/h 13.8mph /  22.2km/h 23% 0in /  0.0mm CLR
14:14 82.4 °F /  28.0 °C 39.7 °F /  4.3 °C 30in /  1017.2hPa ENE 6.2mph /  10.0km/h 9.2mph /  14.8km/h 22% 0in /  0.0mm CLR
14:19 82.8 °F /  28.2 °C 39.9 °F /  4.4 °C 30in /  1017.1hPa NE 6.2mph /  10.0km/h 11.2mph /  18.0km/h 22% 0in /  0.0mm CLR
14:24 82.8 °F /  28.2 °C 39.9 °F /  4.4 °C 30in /  1017.1hPa NE 6.2mph /  10.0km/h 13.8mph /  22.2km/h 22% 0in /  0.0mm CLR
14:29 82.6 °F /  28.1 °C 39.9 °F /  4.4 °C 30in /  1017.1hPa NNW 6.9mph /  11.1km/h 9.2mph /  14.8km/h 22% 0in /  0.0mm CLR
14:34 82.9 °F /  28.3 °C 40.3 °F /  4.6 °C 30in /  1016.8hPa NNW 6.9mph /  11.1km/h 10.4mph /  16.7km/h 22% 0in /  0.0mm CLR
14:39 83.3 °F /  28.5 °C 40.5 °F /  4.7 °C 30in /  1016.8hPa ESE 5.2mph /  8.4km/h 5.8mph /  9.3km/h 22% 0in /  0.0mm CLR
14:44 83.5 °F /  28.6 °C 40.6 °F /  4.8 °C 30in /  1016.8hPa NE 5.2mph /  8.4km/h 13.8mph /  22.2km/h 22% 0in /  0.0mm CLR
14:49 82.9 °F /  28.3 °C 39 °F /  3.9 °C 30in /  1016.7hPa ENE 6.2mph /  10.0km/h 11.2mph /  18.0km/h 21% 0in /  0.0mm CLR
14:54 83.1 °F /  28.4 °C 40.3 °F /  4.6 °C 30in /  1016.7hPa NW 6.2mph /  10.0km/h 8.1mph /  13.0km/h 22% 0in /  0.0mm CLR
14:59 83.5 °F /  28.6 °C 39.4 °F /  4.1 °C 30in /  1016.7hPa ESE 6.2mph /  10.0km/h 6.9mph /  11.1km/h 21% 0in /  0.0mm CLR
15:04 83.1 °F /  28.4 °C 39 °F /  3.9 °C 30in /  1016.6hPa WNW 6.2mph /  10.0km/h 10.4mph /  16.7km/h 21% 0in /  0.0mm CLR
15:09 83.3 °F /  28.5 °C 39.4 °F /  4.1 °C 30in /  1016.6hPa NE 7.6mph /  12.2km/h 12.7mph /  20.4km/h 21% 0in /  0.0mm CLR
15:14 83.5 °F /  28.6 °C 40.6 °F /  4.8 °C 30in /  1016.6hPa ESE 7.6mph /  12.2km/h 12.5mph /  20.1km/h 22% 0in /  0.0mm CLR
15:19 83.1 °F /  28.4 °C 40.3 °F /  4.6 °C 30in /  1016.5hPa ESE 8.7mph /  14.0km/h 10.4mph /  16.7km/h 22% 0in /  0.0mm CLR
15:24 83.1 °F /  28.4 °C 40.3 °F /  4.6 °C 30in /  1016.5hPa NNE 8.7mph /  14.0km/h 16.1mph /  25.9km/h 22% 0in /  0.0mm CLR
15:29 83.1 °F /  28.4 °C 40.3 °F /  4.6 °C 30in /  1016.5hPa NE 8.5mph /  13.7km/h 16.1mph /  25.9km/h 22% 0in /  0.0mm CLR
15:34 83.3 °F /  28.5 °C 39.4 °F /  4.1 °C 30in /  1016.4hPa SE 8.5mph /  13.7km/h 10.4mph /  16.7km/h 21% 0in /  0.0mm CLR
15:39 83.5 °F /  28.6 °C 39.4 °F /  4.1 °C 30in /  1016.4hPa ENE 8.5mph /  13.7km/h 12.7mph /  20.4km/h 21% 0in /  0.0mm CLR
15:44 83.1 °F /  28.4 °C 39 °F /  3.9 °C 30in /  1016.4hPa NE 8.5mph /  13.7km/h 14mph /  22.5km/h 21% 0in /  0.0mm CLR
15:49 82.9 °F /  28.3 °C 39 °F /  3.9 °C 30in /  1016.3hPa NNE 8.5mph /  13.7km/h 8.1mph /  13.0km/h 21% 0in /  0.0mm CLR
15:54 83.3 °F /  28.5 °C 39.4 °F /  4.1 °C 30in /  1016.3hPa ENE 8.5mph /  13.7km/h 11.5mph /  18.5km/h 21% 0in /  0.0mm CLR
15:59 83.3 °F /  28.5 °C 39.4 °F /  4.1 °C 30in /  1016.3hPa NE 8.1mph /  13.0km/h 10.4mph /  16.7km/h 21% 0in /  0.0mm CLR
16:04 83.5 °F /  28.6 °C 39.4 °F /  4.1 °C 30in /  1016.3hPa NE 8.1mph /  13.0km/h 11.4mph /  18.3km/h 21% 0in /  0.0mm CLR
16:09 83.7 °F /  28.7 °C 39.6 °F /  4.2 °C 30in /  1016.3hPa NNE 6.4mph /  10.3km/h 10.7mph /  17.2km/h 21% 0in /  0.0mm CLR
16:14 83.7 °F /  28.7 °C 39.6 °F /  4.2 °C 30in /  1016.3hPa North 6.4mph /  10.3km/h 9.2mph /  14.8km/h 21% 0in /  0.0mm CLR
16:19 83.7 °F /  28.7 °C 39.6 °F /  4.2 °C 30in /  1016.3hPa ENE 6.9mph /  11.1km/h 10.4mph /  16.7km/h 21% 0in /  0.0mm CLR
16:24 83.5 °F /  28.6 °C 40.6 °F /  4.8 °C 30in /  1016.3hPa ENE 6.9mph /  11.1km/h 16.1mph /  25.9km/h 22% 0in /  0.0mm CLR
16:29 83.7 °F /  28.7 °C 40.8 °F /  4.9 °C 30in /  1016.3hPa ENE 6.4mph /  10.3km/h 9.2mph /  14.8km/h 22% 0in /  0.0mm CLR
16:34 83.8 °F /  28.8 °C 39.7 °F /  4.3 °C 30in /  1016.1hPa NE 6.4mph /  10.3km/h 10.4mph /  16.7km/h 21% 0in /  0.0mm CLR
16:39 84 °F /  28.9 °C 41.2 °F /  5.1 °C 30in /  1016.1hPa ENE 6.9mph /  11.1km/h 12.7mph /  20.4km/h 22% 0in /  0.0mm CLR
16:44 84 °F /  28.9 °C 41.2 °F /  5.1 °C 30in /  1016.1hPa South 6.9mph /  11.1km/h 9.2mph /  14.8km/h 22% 0in /  0.0mm CLR
16:49 84 °F /  28.9 °C 41.2 °F /  5.1 °C 30in /  1016.0hPa NE 6.9mph /  11.1km/h 13.8mph /  22.2km/h 22% 0in /  0.0mm CLR
16:54 84 °F /  28.9 °C 41.2 °F /  5.1 °C 30in /  1016.0hPa ENE 6.9mph /  11.1km/h 8.1mph /  13.0km/h 22% 0in /  0.0mm CLR
16:59 83.7 °F /  28.7 °C 41.9 °F /  5.5 °C 30in /  1016.0hPa NNE 7.6mph /  12.2km/h 18.4mph /  29.6km/h 23% 0in /  0.0mm CLR
17:04 83.1 °F /  28.4 °C 40.3 °F /  4.6 °C 30in /  1015.9hPa NE 7.6mph /  12.2km/h 12.7mph /  20.4km/h 22% 0in /  0.0mm CLR
17:09 82.9 °F /  28.3 °C 41.4 °F /  5.2 °C 30in /  1015.9hPa East 9.7mph /  15.6km/h 14.5mph /  23.3km/h 23% 0in /  0.0mm CLR
17:14 82.9 °F /  28.3 °C 41.4 °F /  5.2 °C 30in /  1015.9hPa ENE 9.7mph /  15.6km/h 15mph /  24.1km/h 23% 0in /  0.0mm CLR
17:19 83.1 °F /  28.4 °C 41.5 °F /  5.3 °C 30in /  1015.8hPa NNE 9.7mph /  15.6km/h 11.5mph /  18.5km/h 23% 0in /  0.0mm CLR
17:24 83.3 °F /  28.5 °C 40.5 °F /  4.7 °C 30in /  1015.8hPa ENE 9.7mph /  15.6km/h 12.7mph /  20.4km/h 22% 0in /  0.0mm CLR
17:29 83.1 °F /  28.4 °C 41.5 °F /  5.3 °C 30in /  1015.8hPa NNE 7.6mph /  12.2km/h 10.7mph /  17.2km/h 23% 0in /  0.0mm CLR
17:34 83.5 °F /  28.6 °C 41.7 °F /  5.4 °C 30in /  1015.8hPa NE 7.6mph /  12.2km/h 12.7mph /  20.4km/h 23% 0in /  0.0mm CLR
17:39 83.1 °F /  28.4 °C 41.5 °F /  5.3 °C 30in /  1015.8hPa NNE 8.1mph /  13.0km/h 16.1mph /  25.9km/h 23% 0in /  0.0mm CLR
17:44 82.9 °F /  28.3 °C 41.4 °F /  5.2 °C 30in /  1015.8hPa ENE 8.1mph /  13.0km/h 12.7mph /  20.4km/h 23% 0in /  0.0mm CLR
17:49 82.9 °F /  28.3 °C 42.4 °F /  5.8 °C 30in /  1015.9hPa ENE 9.7mph /  15.6km/h 12.7mph /  20.4km/h 24% 0in /  0.0mm CLR
17:54 82.8 °F /  28.2 °C 41.2 °F /  5.1 °C 30in /  1015.9hPa ESE 9.7mph /  15.6km/h 11.5mph /  18.5km/h 23% 0in /  0.0mm CLR
17:59 82.9 °F /  28.3 °C 42.4 °F /  5.8 °C 30in /  1015.9hPa ENE 8.1mph /  13.0km/h 13.8mph /  22.2km/h 24% 0in /  0.0mm CLR
18:04 82.9 °F /  28.3 °C 42.4 °F /  5.8 °C 30in /  1015.9hPa ENE 8.1mph /  13.0km/h 17.3mph /  27.8km/h 24% 0in /  0.0mm CLR
18:09 82.9 °F /  28.3 °C 42.4 °F /  5.8 °C 30in /  1015.9hPa NE 7.6mph /  12.2km/h 12.3mph /  19.8km/h 24% 0in /  0.0mm CLR
18:14 82.6 °F /  28.1 °C 42.1 °F /  5.6 °C 30in /  1015.9hPa East 7.6mph /  12.2km/h 11.2mph /  18.0km/h 24% 0in /  0.0mm CLR
18:19 82.6 °F /  28.1 °C 42.1 °F /  5.6 °C 30in /  1015.8hPa NE 8.1mph /  13.0km/h 13.5mph /  21.7km/h 24% 0in /  0.0mm CLR
18:24 82.4 °F /  28.0 °C 42.1 °F /  5.6 °C 30in /  1015.8hPa NE 8.1mph /  13.0km/h 15mph /  24.1km/h 24% 0in /  0.0mm CLR
18:29 82.2 °F /  27.9 °C 41.7 °F /  5.4 °C 30in /  1015.8hPa NNE 8.5mph /  13.7km/h 11.5mph /  18.5km/h 24% 0in /  0.0mm CLR
18:34 82.2 °F /  27.9 °C 41.7 °F /  5.4 °C 30in /  1015.8hPa East 8.5mph /  13.7km/h 9.2mph /  14.8km/h 24% 0in /  0.0mm CLR
18:39 82.2 °F /  27.9 °C 43 °F /  6.1 °C 30in /  1015.8hPa NE 7.4mph /  11.9km/h 11.8mph /  19.0km/h 25% 0in /  0.0mm CLR
18:44 81.9 °F /  27.7 °C 42.6 °F /  5.9 °C 30in /  1015.8hPa NNE 7.4mph /  11.9km/h 10.4mph /  16.7km/h 25% 0in /  0.0mm CLR
18:49 81.7 °F /  27.6 °C 42.4 °F /  5.8 °C 30in /  1015.7hPa NE 9.2mph /  14.8km/h 16.1mph /  25.9km/h 25% 0in /  0.0mm CLR
18:54 81.5 °F /  27.5 °C 43.3 °F /  6.3 °C 30in /  1015.7hPa NNE 9.2mph /  14.8km/h 9.2mph /  14.8km/h 26% 0in /  0.0mm CLR
18:59 81.7 °F /  27.6 °C 44.4 °F /  6.9 °C 30in /  1015.7hPa East 8.5mph /  13.7km/h 10.4mph /  16.7km/h 27% 0in /  0.0mm CLR
19:04 81.7 °F /  27.6 °C 44.4 °F /  6.9 °C 30in /  1015.6hPa NNE 8.5mph /  13.7km/h 12.7mph /  20.4km/h 27% 0in /  0.0mm CLR
19:09 81.3 °F /  27.4 °C 44.1 °F /  6.7 °C 30in /  1015.6hPa North 7.4mph /  11.9km/h 12.7mph /  20.4km/h 27% 0in /  0.0mm CLR
19:14 81.1 °F /  27.3 °C 44.1 °F /  6.7 °C 30in /  1015.6hPa NNE 7.4mph /  11.9km/h 12.7mph /  20.4km/h 27% 0in /  0.0mm CLR
19:19 81 °F /  27.2 °C 44.8 °F /  7.1 °C 30in /  1015.6hPa NE 8.1mph /  13.0km/h 16.1mph /  25.9km/h 28% 0in /  0.0mm CLR
19:24 80.8 °F /  27.1 °C 44.6 °F /  7.0 °C 30in /  1015.6hPa North 8.1mph /  13.0km/h 10.4mph /  16.7km/h 28% 0in /  0.0mm CLR
19:29 80.4 °F /  26.9 °C 45.1 °F /  7.3 °C 30in /  1015.6hPa NE 8.7mph /  14.0km/h 13.8mph /  22.2km/h 29% 0in /  0.0mm CLR
19:34 80.1 °F /  26.7 °C 45.9 °F /  7.7 °C 30in /  1015.7hPa NE 8.7mph /  14.0km/h 10.4mph /  16.7km/h 30% 0in /  0.0mm CLR
19:39 80.1 °F /  26.7 °C 45.9 °F /  7.7 °C 30in /  1015.7hPa ENE 8.5mph /  13.7km/h 11.5mph /  18.5km/h 30% 0in /  0.0mm CLR
19:44 79.9 °F /  26.6 °C 45.7 °F /  7.6 °C 30in /  1015.7hPa NE 8.5mph /  13.7km/h 11.5mph /  18.5km/h 30% 0in /  0.0mm CLR
19:49 79.5 °F /  26.4 °C 45.3 °F /  7.4 °C 30in /  1015.8hPa NE 8.1mph /  13.0km/h 11.5mph /  18.5km/h 30% 0in /  0.0mm CLR
19:54 79.2 °F /  26.2 °C 45 °F /  7.2 °C 30in /  1015.8hPa ENE 8.1mph /  13.0km/h 12.7mph /  20.4km/h 30% 0in /  0.0mm CLR
19:59 79 °F /  26.1 °C 45 °F /  7.2 °C 30in /  1015.8hPa NNE 9.7mph /  15.6km/h 11.5mph /  18.5km/h 30% 0in /  0.0mm CLR
20:04 78.8 °F /  26.0 °C 43.9 °F /  6.6 °C 30in /  1015.9hPa NNE 9.7mph /  15.6km/h 12.7mph /  20.4km/h 29% 0in /  0.0mm CLR
20:09 78.6 °F /  25.9 °C 42.8 °F /  6.0 °C 30in /  1015.9hPa ENE 8.1mph /  13.0km/h 15mph /  24.1km/h 28% 0in /  0.0mm CLR
20:14 78.4 °F /  25.8 °C 42.6 °F /  5.9 °C 30in /  1015.9hPa NNE 8.1mph /  13.0km/h 15mph /  24.1km/h 28% 0in /  0.0mm CLR
20:19 78.3 °F /  25.7 °C 42.4 °F /  5.8 °C 30in /  1015.9hPa North 9.7mph /  15.6km/h 11.5mph /  18.5km/h 28% 0in /  0.0mm CLR
20:24 78.1 °F /  25.6 °C 43.2 °F /  6.2 °C 30in /  1015.9hPa NE 9.7mph /  15.6km/h 12.7mph /  20.4km/h 29% 0in /  0.0mm CLR
20:29 77.9 °F /  25.5 °C 43.2 °F /  6.2 °C 30in /  1015.9hPa NE 8.1mph /  13.0km/h 13.8mph /  22.2km/h 29% 0in /  0.0mm CLR
20:34 77.7 °F /  25.4 °C 43 °F /  6.1 °C 30in /  1015.9hPa ENE 8.1mph /  13.0km/h 11.5mph /  18.5km/h 29% 0in /  0.0mm CLR
20:39 77.4 °F /  25.2 °C 43.5 °F /  6.4 °C 30in /  1015.9hPa NE 8.7mph /  14.0km/h 12.7mph /  20.4km/h 30% 0in /  0.0mm CLR
20:44 77.2 °F /  25.1 °C 43.3 °F /  6.3 °C 30in /  1015.9hPa ENE 8.7mph /  14.0km/h 11.5mph /  18.5km/h 30% 0in /  0.0mm CLR
20:49 77 °F /  25.0 °C 43.2 °F /  6.2 °C 30in /  1016.1hPa NNE 8.1mph /  13.0km/h 13.8mph /  22.2km/h 30% 0in /  0.0mm CLR
20:54 76.8 °F /  24.9 °C 43 °F /  6.1 °C 30in /  1016.1hPa NE 8.1mph /  13.0km/h 10.4mph /  16.7km/h 30% 0in /  0.0mm CLR
20:59 76.6 °F /  24.8 °C 43.7 °F /  6.5 °C 30in /  1016.1hPa NE 7.6mph /  12.2km/h 9.2mph /  14.8km/h 31% 0in /  0.0mm CLR
21:04 76.3 °F /  24.6 °C 45.1 °F /  7.3 °C 30in /  1016.2hPa NE 7.6mph /  12.2km/h 9.2mph /  14.8km/h 33% 0in /  0.0mm CLR
21:09 75.7 °F /  24.3 °C 45.3 °F /  7.4 °C 30in /  1016.2hPa NNE 6.4mph /  10.3km/h 9.2mph /  14.8km/h 34% 0in /  0.0mm CLR
21:14 75.2 °F /  24.0 °C 45.7 °F /  7.6 °C 30in /  1016.2hPa NE 6.4mph /  10.3km/h 9.2mph /  14.8km/h 35% 0in /  0.0mm CLR
21:19 74.8 °F /  23.8 °C 46 °F /  7.8 °C 30in /  1016.2hPa NE 6.9mph /  11.1km/h 10.4mph /  16.7km/h 36% 0in /  0.0mm CLR
21:24 74.5 °F /  23.6 °C 45.9 °F /  7.7 °C 30in /  1016.2hPa NE 6.9mph /  11.1km/h 9.2mph /  14.8km/h 36% 0in /  0.0mm CLR
21:29 74.1 °F /  23.4 °C 46.2 °F /  7.9 °C 30in /  1016.2hPa ENE 6.9mph /  11.1km/h 9.2mph /  14.8km/h 37% 0in /  0.0mm CLR
21:34 73.9 °F /  23.3 °C 46.8 °F /  8.2 °C 30in /  1016.4hPa NE 6.9mph /  11.1km/h 6.9mph /  11.1km/h 38% 0in /  0.0mm CLR
21:39 73.8 °F /  23.2 °C 47.3 °F /  8.5 °C 30in /  1016.4hPa NE 5.4mph /  8.7km/h 10mph /  16.1km/h 39% 0in /  0.0mm CLR
21:44 73.2 °F /  22.9 °C 47.5 °F /  8.6 °C 30in /  1016.4hPa NNE 5.4mph /  8.7km/h 9.2mph /  14.8km/h 40% 0in /  0.0mm CLR
21:49 73 °F /  22.8 °C 47.8 °F /  8.8 °C 30in /  1016.5hPa NNE 6.4mph /  10.3km/h 8.1mph /  13.0km/h 41% 0in /  0.0mm CLR
21:54 72.7 °F /  22.6 °C 48.9 °F /  9.4 °C 30in /  1016.5hPa NE 6.4mph /  10.3km/h 11.5mph /  18.5km/h 43% 0in /  0.0mm CLR
21:59 72.3 °F /  22.4 °C 50.4 °F /  10.2 °C 30in /  1016.5hPa NNE 6.4mph /  10.3km/h 8.1mph /  13.0km/h 46% 0in /  0.0mm CLR
22:04 72 °F /  22.2 °C 51.8 °F /  11.0 °C 30in /  1016.6hPa NE 6.4mph /  10.3km/h 7.4mph /  11.9km/h 49% 0in /  0.0mm CLR
22:09 71.6 °F /  22.0 °C 52.5 °F /  11.4 °C 30in /  1016.6hPa North 5.9mph /  9.5km/h 8.1mph /  13.0km/h 51% 0in /  0.0mm CLR
22:14 71.2 °F /  21.8 °C 52.7 °F /  11.5 °C 30in /  1016.6hPa NNE 5.9mph /  9.5km/h 9.2mph /  14.8km/h 52% 0in /  0.0mm CLR
22:19 71.1 °F /  21.7 °C 53.1 °F /  11.7 °C 30in /  1016.7hPa ENE 6.2mph /  10.0km/h 9.2mph /  14.8km/h 53% 0in /  0.0mm CLR
22:24 70.7 °F /  21.5 °C 52.7 °F /  11.5 °C 30in /  1016.7hPa NNE 6.2mph /  10.0km/h 9.2mph /  14.8km/h 53% 0in /  0.0mm CLR
22:29 70.5 °F /  21.4 °C 53.1 °F /  11.7 °C 30in /  1016.7hPa NE 6.9mph /  11.1km/h 10.4mph /  16.7km/h 54% 0in /  0.0mm CLR
22:34 70.3 °F /  21.3 °C 52.9 °F /  11.6 °C 30in /  1016.9hPa NE 6.9mph /  11.1km/h 6.9mph /  11.1km/h 54% 0in /  0.0mm CLR
22:39 70.2 °F /  21.2 °C 52.7 °F /  11.5 °C 30in /  1016.9hPa NNE 5.4mph /  8.7km/h 11.5mph /  18.5km/h 54% 0in /  0.0mm CLR
22:44 70 °F /  21.1 °C 52.5 °F /  11.4 °C 30in /  1016.9hPa NNE 5.4mph /  8.7km/h 9.2mph /  14.8km/h 54% 0in /  0.0mm CLR
22:49 69.8 °F /  21.0 °C 52.3 °F /  11.3 °C 30in /  1017.2hPa NE 5.9mph /  9.5km/h 6.9mph /  11.1km/h 54% 0in /  0.0mm CLR
22:54 69.6 °F /  20.9 °C 52.2 °F /  11.2 °C 30in /  1017.2hPa NNE 5.9mph /  9.5km/h 5.2mph /  8.4km/h 54% 0in /  0.0mm CLR
22:59 69.6 °F /  20.9 °C 52.2 °F /  11.2 °C 30in /  1017.2hPa ENE 4.3mph /  6.9km/h 8.1mph /  13.0km/h 54% 0in /  0.0mm CLR
23:04 69.4 °F /  20.8 °C 52.5 °F /  11.4 °C 30.1in /  1017.5hPa NNE 4.3mph /  6.9km/h 9.2mph /  14.8km/h 55% 0in /  0.0mm CLR
23:09 69.3 °F /  20.7 °C 52.9 °F /  11.6 °C 30.1in /  1017.5hPa NE 5.4mph /  8.7km/h 9.2mph /  14.8km/h 56% 0in /  0.0mm CLR
23:14 69.1 °F /  20.6 °C 53.2 °F /  11.8 °C 30.1in /  1017.5hPa NNE 5.4mph /  8.7km/h 6.9mph /  11.1km/h 57% 0in /  0.0mm CLR
23:19 68.9 °F /  20.5 °C 53.1 °F /  11.7 °C 30in /  1017.4hPa NE 5.4mph /  8.7km/h 6.9mph /  11.1km/h 57% 0in /  0.0mm CLR
23:24 68.7 °F /  20.4 °C 52.9 °F /  11.6 °C 30in /  1017.4hPa NNE 5.4mph /  8.7km/h 8.1mph /  13.0km/h 57% 0in /  0.0mm CLR
23:29 68.5 °F /  20.3 °C 52.7 °F /  11.5 °C 30in /  1017.4hPa NE 5.9mph /  9.5km/h 6.9mph /  11.1km/h 57% 0in /  0.0mm CLR
23:34 68.4 °F /  20.2 °C 53.1 °F /  11.7 °C 30.1in /  1017.5hPa NE 5.9mph /  9.5km/h 8.1mph /  13.0km/h 58% 0in /  0.0mm CLR
23:39 68.2 °F /  20.1 °C 52.9 °F /  11.6 °C 30.1in /  1017.5hPa NNE 5.9mph /  9.5km/h 9.2mph /  14.8km/h 58% 0in /  0.0mm CLR
23:44 68 °F /  20.0 °C 53.1 °F /  11.7 °C 30.1in /  1017.5hPa ENE 5.9mph /  9.5km/h 8.1mph /  13.0km/h 59% 0in /  0.0mm CLR
23:49 67.8 °F /  19.9 °C 53.4 °F /  11.9 °C 30.1in /  1017.6hPa NNE 5.4mph /  8.7km/h 8.1mph /  13.0km/h 60% 0in /  0.0mm CLR
23:54 67.6 °F /  19.8 °C 53.2 °F /  11.8 °C 30.1in /  1017.6hPa NNE 5.4mph /  8.7km/h 8.1mph /  13.0km/h 60% 0in /  0.0mm CLR
23:59 67.5 °F /  19.7 °C 53.4 °F /  11.9 °C 30.1in /  1017.6hPa NNE 5.4mph /  8.7km/h 6.2mph /  10.0km/h 61% 0in /  0.0mm CLR
Murcia-Puente Tocinos, España
Compliments of Weather Underground - 3 mb

La estación de MeteoMurcia.com, publica sus datos en los siguientes proyectos:

Weather Underground PWS IMURCIAP2 Meteoclimatic www.awekas.at

W3Counter
Web Analytics